<?xml version="1.0" encoding="UTF-8" standalone="no" ?>
<gpx xmlns="http://www.topografix.com/GPX/1/1" xmlns:xsi="http://www.w3.org/2001/XMLSchema-instance" xsi:schemaLocation="http://www.topografix.com/GPX/1/1 http://www.topografix.com/GPX/1/1/gpx.xsd" version="1.1" creator="VisuGPX - https://www.visugpx.com">
  <metadata>
    <name>tour Saint-Martin-en-Haut</name>
    <desc><![CDATA[

]]></desc>
  </metadata>
  <trk>
    <name><![CDATA[tour Saint-Martin-en-Haut_1]]></name>
    <desc><![CDATA[

]]></desc>
    <trkseg>
      <trkpt lat="45.66184" lon="4.56046">
        <ele>722</ele>
        <time>2009-07-12T13:22:08Z</time>
        <extensions>
          <visugpx:TrkExtension xmlns:visugpx="https://www.visugpx.com/editgpx/">
            <visugpx:node>3</visugpx:node>
            </visugpx:TrkExtension>
        </extensions>
      </trkpt>
      <trkpt lat="45.66254" lon="4.56193">
        <ele>732</ele>
        <time>2009-07-12T13:23:25Z</time>
      </trkpt>
      <trkpt lat="45.66289" lon="4.56271">
        <ele>733</ele>
        <time>2009-07-12T13:24:09Z</time>
      </trkpt>
      <trkpt lat="45.66294" lon="4.56299">
        <ele>733</ele>
        <time>2009-07-12T13:24:29Z</time>
      </trkpt>
      <trkpt lat="45.66302" lon="4.56343">
        <ele>732</ele>
        <time>2009-07-12T13:25:16Z</time>
      </trkpt>
      <trkpt lat="45.66343" lon="4.56468">
        <ele>731</ele>
        <time>2009-07-12T13:25:35Z</time>
      </trkpt>
      <trkpt lat="45.6639" lon="4.56603">
        <ele>729</ele>
        <time>2009-07-12T13:25:59Z</time>
      </trkpt>
      <trkpt lat="45.66408" lon="4.56666">
        <ele>729</ele>
        <time>2009-07-12T13:26:09Z</time>
      </trkpt>
      <trkpt lat="45.66411" lon="4.56761">
        <ele>730</ele>
        <time>2009-07-12T13:26:25Z</time>
      </trkpt>
      <trkpt lat="45.6643" lon="4.56929">
        <ele>735</ele>
        <time>2009-07-12T13:27:02Z</time>
      </trkpt>
      <trkpt lat="45.66489" lon="4.57019">
        <ele>732</ele>
        <time>2009-07-12T13:27:25Z</time>
      </trkpt>
      <trkpt lat="45.665" lon="4.57116">
        <ele>731</ele>
        <time>2009-07-12T13:27:39Z</time>
      </trkpt>
      <trkpt lat="45.66508" lon="4.57215">
        <ele>730</ele>
        <time>2009-07-12T13:27:55Z</time>
      </trkpt>
      <trkpt lat="45.66582" lon="4.57312">
        <ele>717</ele>
        <time>2009-07-12T13:28:14Z</time>
      </trkpt>
      <trkpt lat="45.66641" lon="4.57301">
        <ele>715</ele>
        <time>2009-07-12T13:28:29Z</time>
      </trkpt>
      <trkpt lat="45.66756" lon="4.57315">
        <ele>716</ele>
        <time>2009-07-12T13:30:01Z</time>
      </trkpt>
      <trkpt lat="45.66783" lon="4.57304">
        <ele>719</ele>
        <time>2009-07-12T13:30:36Z</time>
      </trkpt>
      <trkpt lat="45.66895" lon="4.57315">
        <ele>715</ele>
        <time>2009-07-12T13:34:30Z</time>
      </trkpt>
      <trkpt lat="45.66922" lon="4.57235">
        <ele>719</ele>
        <time>2009-07-12T13:36:24Z</time>
      </trkpt>
      <trkpt lat="45.6697" lon="4.57172">
        <ele>711</ele>
        <time>2009-07-12T13:36:48Z</time>
      </trkpt>
      <trkpt lat="45.66969" lon="4.57202">
        <ele>710</ele>
        <time>2009-07-12T13:36:53Z</time>
      </trkpt>
      <trkpt lat="45.66964" lon="4.57236">
        <ele>709</ele>
        <time>2009-07-12T13:36:58Z</time>
      </trkpt>
      <trkpt lat="45.66964" lon="4.57246">
        <ele>709</ele>
        <time>2009-07-12T13:37:00Z</time>
      </trkpt>
      <trkpt lat="45.66998" lon="4.57275">
        <ele>699</ele>
        <time>2009-07-12T13:37:45Z</time>
      </trkpt>
      <trkpt lat="45.67051" lon="4.5726">
        <ele>687</ele>
        <time>2009-07-12T13:39:05Z</time>
      </trkpt>
      <trkpt lat="45.67124" lon="4.57241">
        <ele>677</ele>
        <time>2009-07-12T13:40:29Z</time>
      </trkpt>
      <trkpt lat="45.67178" lon="4.57216">
        <ele>678</ele>
        <time>2009-07-12T13:40:48Z</time>
      </trkpt>
      <trkpt lat="45.67195" lon="4.57213">
        <ele>679</ele>
        <time>2009-07-12T13:41:00Z</time>
      </trkpt>
      <trkpt lat="45.67306" lon="4.57321">
        <ele>700</ele>
        <time>2009-07-12T13:44:47Z</time>
      </trkpt>
      <trkpt lat="45.67425" lon="4.57439">
        <ele>733</ele>
        <time>2009-07-12T13:49:46Z</time>
      </trkpt>
      <trkpt lat="45.67491" lon="4.5752">
        <ele>754</ele>
        <time>2009-07-12T13:52:43Z</time>
      </trkpt>
      <trkpt lat="45.67541" lon="4.5757">
        <ele>761</ele>
        <time>2009-07-12T13:53:47Z</time>
      </trkpt>
      <trkpt lat="45.67578" lon="4.57626">
        <ele>762</ele>
        <time>2009-07-12T13:59:27Z</time>
      </trkpt>
      <trkpt lat="45.67625" lon="4.57816">
        <ele>766</ele>
        <time>2009-07-12T14:00:25Z</time>
      </trkpt>
      <trkpt lat="45.67631" lon="4.57841">
        <ele>762</ele>
        <time>2009-07-12T14:00:33Z</time>
      </trkpt>
      <trkpt lat="45.67667" lon="4.579">
        <ele>753</ele>
        <time>2009-07-12T14:03:44Z</time>
      </trkpt>
      <trkpt lat="45.67704" lon="4.57935">
        <ele>747</ele>
        <time>2009-07-12T14:04:00Z</time>
      </trkpt>
      <trkpt lat="45.67764" lon="4.57975">
        <ele>741</ele>
        <time>2009-07-12T14:04:17Z</time>
      </trkpt>
      <trkpt lat="45.67913" lon="4.5799">
        <ele>728</ele>
        <time>2009-07-12T14:05:36Z</time>
      </trkpt>
      <trkpt lat="45.68017" lon="4.58025">
        <ele>729</ele>
        <time>2009-07-12T14:06:32Z</time>
      </trkpt>
      <trkpt lat="45.68076" lon="4.58078">
        <ele>731</ele>
        <time>2009-07-12T14:06:57Z</time>
      </trkpt>
      <trkpt lat="45.68204" lon="4.58268">
        <ele>734</ele>
        <time>2009-07-12T14:07:54Z</time>
      </trkpt>
      <trkpt lat="45.68233" lon="4.58329">
        <ele>735</ele>
        <time>2009-07-12T14:08:14Z</time>
      </trkpt>
      <trkpt lat="45.68356" lon="4.58362">
        <ele>756</ele>
        <time>2009-07-12T14:13:09Z</time>
      </trkpt>
      <trkpt lat="45.68378" lon="4.58343">
        <ele>758</ele>
        <time>2009-07-12T14:13:28Z</time>
      </trkpt>
      <trkpt lat="45.68419" lon="4.58304">
        <ele>760</ele>
        <time>2009-07-12T14:13:59Z</time>
      </trkpt>
      <trkpt lat="45.68493" lon="4.58229">
        <ele>770</ele>
        <time>2009-07-12T14:14:54Z</time>
      </trkpt>
      <trkpt lat="45.68515" lon="4.58164">
        <ele>771</ele>
        <time>2009-07-12T14:15:22Z</time>
      </trkpt>
      <trkpt lat="45.68522" lon="4.58174">
        <ele>770</ele>
        <time>2009-07-12T14:15:27Z</time>
      </trkpt>
      <trkpt lat="45.6855" lon="4.58213">
        <ele>764</ele>
        <time>2009-07-12T14:15:39Z</time>
      </trkpt>
      <trkpt lat="45.68624" lon="4.58187">
        <ele>753</ele>
        <time>2009-07-12T14:16:05Z</time>
      </trkpt>
      <trkpt lat="45.68667" lon="4.58137">
        <ele>744</ele>
        <time>2009-07-12T14:16:22Z</time>
      </trkpt>
      <trkpt lat="45.68683" lon="4.5816">
        <ele>739</ele>
        <time>2009-07-12T14:16:25Z</time>
      </trkpt>
      <trkpt lat="45.68681" lon="4.58189">
        <ele>739</ele>
        <time>2009-07-12T14:16:43Z</time>
      </trkpt>
      <trkpt lat="45.68673" lon="4.58322">
        <ele>720</ele>
        <time>2009-07-12T14:20:18Z</time>
      </trkpt>
      <trkpt lat="45.68685" lon="4.58322">
        <ele>716</ele>
        <time>2009-07-12T14:20:22Z</time>
      </trkpt>
      <trkpt lat="45.68738" lon="4.58191">
        <ele>717</ele>
        <time>2009-07-12T14:20:41Z</time>
      </trkpt>
      <trkpt lat="45.68751" lon="4.58124">
        <ele>716</ele>
        <time>2009-07-12T14:20:55Z</time>
      </trkpt>
      <trkpt lat="45.68743" lon="4.58098">
        <ele>720</ele>
        <time>2009-07-12T14:20:59Z</time>
      </trkpt>
      <trkpt lat="45.68766" lon="4.58017">
        <ele>722</ele>
        <time>2009-07-12T14:21:18Z</time>
      </trkpt>
      <trkpt lat="45.68815" lon="4.57923">
        <ele>721</ele>
        <time>2009-07-12T14:21:53Z</time>
      </trkpt>
      <trkpt lat="45.68847" lon="4.57914">
        <ele>714</ele>
        <time>2009-07-12T14:21:57Z</time>
      </trkpt>
      <trkpt lat="45.6887" lon="4.57949">
        <ele>718</ele>
        <time>2009-07-12T14:22:07Z</time>
      </trkpt>
      <trkpt lat="45.68873" lon="4.57976">
        <ele>720</ele>
        <time>2009-07-12T14:22:21Z</time>
      </trkpt>
      <trkpt lat="45.68889" lon="4.58092">
        <ele>726</ele>
        <time>2009-07-12T14:23:49Z</time>
      </trkpt>
      <trkpt lat="45.68917" lon="4.58121">
        <ele>730</ele>
        <time>2009-07-12T14:24:18Z</time>
      </trkpt>
      <trkpt lat="45.68965" lon="4.58042">
        <ele>743</ele>
        <time>2009-07-12T14:25:47Z</time>
      </trkpt>
      <trkpt lat="45.69011" lon="4.57994">
        <ele>753</ele>
        <time>2009-07-12T14:27:13Z</time>
      </trkpt>
      <trkpt lat="45.6908" lon="4.57985">
        <ele>763</ele>
        <time>2009-07-12T14:28:07Z</time>
      </trkpt>
      <trkpt lat="45.69101" lon="4.57968">
        <ele>766</ele>
        <time>2009-07-12T14:28:25Z</time>
      </trkpt>
      <trkpt lat="45.69111" lon="4.57936">
        <ele>769</ele>
        <time>2009-07-12T14:28:46Z</time>
      </trkpt>
      <trkpt lat="45.69113" lon="4.57908">
        <ele>770</ele>
        <time>2009-07-12T14:29:09Z</time>
      </trkpt>
      <trkpt lat="45.6912" lon="4.5788">
        <ele>771</ele>
        <time>2009-07-12T14:29:27Z</time>
      </trkpt>
      <trkpt lat="45.69163" lon="4.57858">
        <ele>774</ele>
        <time>2009-07-12T14:30:17Z</time>
      </trkpt>
      <trkpt lat="45.69226" lon="4.57845">
        <ele>777</ele>
        <time>2009-07-12T14:30:46Z</time>
      </trkpt>
      <trkpt lat="45.69281" lon="4.57802">
        <ele>782</ele>
        <time>2009-07-12T14:30:59Z</time>
      </trkpt>
      <trkpt lat="45.6944" lon="4.57619">
        <ele>788</ele>
        <time>2009-07-12T14:32:38Z</time>
      </trkpt>
      <trkpt lat="45.6944" lon="4.576">
        <ele>788.6</ele>
      </trkpt>
      <trkpt lat="45.69456" lon="4.57596">
        <ele>787.6</ele>
      </trkpt>
      <trkpt lat="45.69463" lon="4.57594">
        <ele>787</ele>
      </trkpt>
      <trkpt lat="45.69473" lon="4.57587">
        <ele>786</ele>
      </trkpt>
      <trkpt lat="45.69483" lon="4.5758">
        <ele>784.2</ele>
      </trkpt>
      <trkpt lat="45.69493" lon="4.57565">
        <ele>783.7</ele>
      </trkpt>
      <trkpt lat="45.69493" lon="4.57561">
        <ele>784.1</ele>
      </trkpt>
      <trkpt lat="45.69494" lon="4.57557">
        <ele>784.3</ele>
      </trkpt>
      <trkpt lat="45.69497" lon="4.57542">
        <ele>785.5</ele>
      </trkpt>
      <trkpt lat="45.69487" lon="4.57536">
        <ele>786.1</ele>
      </trkpt>
      <trkpt lat="45.69491" lon="4.5746">
        <ele>793</ele>
      </trkpt>
      <trkpt lat="45.69494" lon="4.57442">
        <ele>795.7</ele>
      </trkpt>
      <trkpt lat="45.69498" lon="4.5743">
        <ele>797.9</ele>
      </trkpt>
      <trkpt lat="45.69512" lon="4.57386">
        <ele>805.9</ele>
      </trkpt>
      <trkpt lat="45.69518" lon="4.57369">
        <ele>809</ele>
      </trkpt>
      <trkpt lat="45.69522" lon="4.57358">
        <ele>811</ele>
      </trkpt>
      <trkpt lat="45.69525" lon="4.57347">
        <ele>812.8</ele>
      </trkpt>
      <trkpt lat="45.69526" lon="4.57334">
        <ele>814.7</ele>
      </trkpt>
      <trkpt lat="45.69531" lon="4.57322">
        <ele>816.2</ele>
      </trkpt>
      <trkpt lat="45.69536" lon="4.57315">
        <ele>817.4</ele>
      </trkpt>
      <trkpt lat="45.69544" lon="4.5731">
        <ele>818.9</ele>
      </trkpt>
      <trkpt lat="45.69555" lon="4.57302">
        <ele>821.3</ele>
      </trkpt>
      <trkpt lat="45.69564" lon="4.57294">
        <ele>823.2</ele>
      </trkpt>
      <trkpt lat="45.69571" lon="4.57283">
        <ele>825.1</ele>
      </trkpt>
      <trkpt lat="45.69578" lon="4.5727">
        <ele>827.5</ele>
      </trkpt>
      <trkpt lat="45.6959" lon="4.57229">
        <ele>834.4</ele>
      </trkpt>
      <trkpt lat="45.69609" lon="4.57168">
        <ele>844.5</ele>
      </trkpt>
      <trkpt lat="45.69611" lon="4.57162">
        <ele>845.3</ele>
      </trkpt>
      <trkpt lat="45.69618" lon="4.57158">
        <ele>845.9</ele>
      </trkpt>
      <trkpt lat="45.69623" lon="4.57156">
        <ele>846.4</ele>
      </trkpt>
      <trkpt lat="45.69629" lon="4.57152">
        <ele>847</ele>
      </trkpt>
      <trkpt lat="45.69636" lon="4.57146">
        <ele>848.1</ele>
      </trkpt>
      <trkpt lat="45.69653" lon="4.57119">
        <ele>852.4</ele>
      </trkpt>
      <trkpt lat="45.69663" lon="4.57121">
        <ele>852.9</ele>
      </trkpt>
      <trkpt lat="45.69679" lon="4.57125">
        <ele>853.4</ele>
      </trkpt>
      <trkpt lat="45.69689" lon="4.57132">
        <ele>852.8</ele>
      </trkpt>
      <trkpt lat="45.69709" lon="4.57133">
        <ele>850.7</ele>
      </trkpt>
      <trkpt lat="45.6972" lon="4.57129">
        <ele>849.8</ele>
      </trkpt>
      <trkpt lat="45.69737" lon="4.57117">
        <ele>847.2</ele>
      </trkpt>
      <trkpt lat="45.69759" lon="4.57092">
        <ele>843.1</ele>
      </trkpt>
      <trkpt lat="45.6978" lon="4.5706">
        <ele>839.2</ele>
      </trkpt>
      <trkpt lat="45.69802" lon="4.57031">
        <ele>835.8</ele>
      </trkpt>
      <trkpt lat="45.69825" lon="4.57005">
        <ele>832.2</ele>
      </trkpt>
      <trkpt lat="45.69835" lon="4.56986">
        <ele>832.9</ele>
      </trkpt>
      <trkpt lat="45.69848" lon="4.5695">
        <ele>837.2</ele>
      </trkpt>
      <trkpt lat="45.69848" lon="4.56949">
        <ele>837.5</ele>
        <extensions>
          <visugpx:TrkExtension xmlns:visugpx="https://www.visugpx.com/editgpx/">
            <visugpx:node>1</visugpx:node>
            </visugpx:TrkExtension>
        </extensions>
      </trkpt>
      <trkpt lat="45.69855" lon="4.5694">
        <ele>837.6</ele>
      </trkpt>
      <trkpt lat="45.69867" lon="4.56929">
        <ele>837.1</ele>
      </trkpt>
      <trkpt lat="45.69917" lon="4.56895">
        <ele>831.4</ele>
      </trkpt>
      <trkpt lat="45.69925" lon="4.56887">
        <ele>831.5</ele>
      </trkpt>
      <trkpt lat="45.69931" lon="4.56875">
        <ele>833.4</ele>
      </trkpt>
      <trkpt lat="45.69938" lon="4.56854">
        <ele>837</ele>
      </trkpt>
      <trkpt lat="45.69948" lon="4.56827">
        <ele>840.5</ele>
      </trkpt>
      <trkpt lat="45.6997" lon="4.56789">
        <ele>841.2</ele>
      </trkpt>
      <trkpt lat="45.69981" lon="4.56762">
        <ele>843.3</ele>
      </trkpt>
      <trkpt lat="45.69995" lon="4.56724">
        <ele>846.7</ele>
      </trkpt>
      <trkpt lat="45.70011" lon="4.56683">
        <ele>851.6</ele>
      </trkpt>
      <trkpt lat="45.70018" lon="4.56663">
        <ele>854.1</ele>
      </trkpt>
      <trkpt lat="45.70023" lon="4.56651">
        <ele>855.8</ele>
      </trkpt>
      <trkpt lat="45.70034" lon="4.5664">
        <ele>855.8</ele>
      </trkpt>
      <trkpt lat="45.7005" lon="4.56629">
        <ele>855</ele>
      </trkpt>
      <trkpt lat="45.70066" lon="4.56612">
        <ele>857.4</ele>
      </trkpt>
      <trkpt lat="45.70081" lon="4.56585">
        <ele>861.9</ele>
      </trkpt>
      <trkpt lat="45.70087" lon="4.56565">
        <ele>865.2</ele>
      </trkpt>
      <trkpt lat="45.70137" lon="4.56556">
        <ele>858.3</ele>
      </trkpt>
      <trkpt lat="45.70165" lon="4.56574">
        <ele>857.6</ele>
      </trkpt>
      <trkpt lat="45.7016" lon="4.5656">
        <ele>859.9</ele>
      </trkpt>
      <trkpt lat="45.70156" lon="4.56548">
        <ele>862</ele>
      </trkpt>
      <trkpt lat="45.70152" lon="4.56535">
        <ele>863.9</ele>
        <extensions>
          <visugpx:TrkExtension xmlns:visugpx="https://www.visugpx.com/editgpx/">
            <visugpx:node>2</visugpx:node>
            </visugpx:TrkExtension>
        </extensions>
      </trkpt>
      <trkpt lat="45.70148" lon="4.56497">
        <ele>865</ele>
        <time>2009-07-12T09:32:00Z</time>
      </trkpt>
      <trkpt lat="45.70143" lon="4.56463">
        <ele>871.8</ele>
      </trkpt>
      <trkpt lat="45.70148" lon="4.56437">
        <ele>872.4</ele>
        <time>2009-07-12T09:32:40Z</time>
      </trkpt>
      <trkpt lat="45.70161" lon="4.56402">
        <ele>869.5</ele>
      </trkpt>
      <trkpt lat="45.70202" lon="4.56369">
        <ele>864</ele>
        <time>2009-07-12T09:32:50Z</time>
      </trkpt>
      <trkpt lat="45.7031" lon="4.56338">
        <ele>865</ele>
        <time>2009-07-12T09:39:12Z</time>
      </trkpt>
      <trkpt lat="45.70449" lon="4.56244">
        <ele>870</ele>
        <time>2009-07-12T09:39:25Z</time>
      </trkpt>
      <trkpt lat="45.70514" lon="4.56125">
        <ele>872</ele>
        <time>2009-07-12T09:39:35Z</time>
      </trkpt>
      <trkpt lat="45.70632" lon="4.55966">
        <ele>889</ele>
        <time>2009-07-12T09:39:57Z</time>
      </trkpt>
      <trkpt lat="45.70796" lon="4.55645">
        <ele>888</ele>
        <time>2009-07-12T09:40:14Z</time>
      </trkpt>
      <trkpt lat="45.70966" lon="4.55555">
        <ele>875</ele>
        <time>2009-07-12T09:40:37Z</time>
      </trkpt>
      <trkpt lat="45.71067" lon="4.5546">
        <ele>863</ele>
        <time>2009-07-12T09:40:42Z</time>
      </trkpt>
      <trkpt lat="45.71081" lon="4.5543">
        <ele>861</ele>
        <time>2009-07-12T09:41:02Z</time>
      </trkpt>
      <trkpt lat="45.71081" lon="4.55384">
        <ele>858</ele>
        <time>2009-07-12T09:41:41Z</time>
      </trkpt>
      <trkpt lat="45.71026" lon="4.55232">
        <ele>845</ele>
        <time>2009-07-12T09:42:38Z</time>
      </trkpt>
      <trkpt lat="45.70929" lon="4.5507">
        <ele>843</ele>
        <time>2009-07-12T09:43:08Z</time>
      </trkpt>
      <trkpt lat="45.70805" lon="4.54909">
        <ele>833</ele>
        <time>2009-07-12T09:43:45Z</time>
      </trkpt>
      <trkpt lat="45.70696" lon="4.54742">
        <ele>814</ele>
        <time>2009-07-12T09:44:20Z</time>
      </trkpt>
      <trkpt lat="45.70619" lon="4.54689">
        <ele>806</ele>
        <time>2009-07-12T09:44:39Z</time>
      </trkpt>
      <trkpt lat="45.70558" lon="4.54616">
        <ele>794</ele>
        <time>2009-07-12T09:44:59Z</time>
      </trkpt>
      <trkpt lat="45.70444" lon="4.54413">
        <ele>786</ele>
        <time>2009-07-12T09:45:29Z</time>
      </trkpt>
      <trkpt lat="45.70389" lon="4.54366">
        <ele>778</ele>
        <time>2009-07-12T09:46:06Z</time>
      </trkpt>
      <trkpt lat="45.70433" lon="4.54257">
        <ele>786</ele>
        <time>2009-07-12T09:46:41Z</time>
      </trkpt>
      <trkpt lat="45.70456" lon="4.54189">
        <ele>785</ele>
        <time>2009-07-12T09:47:13Z</time>
      </trkpt>
      <trkpt lat="45.70459" lon="4.54017">
        <ele>775</ele>
        <time>2009-07-12T09:47:58Z</time>
      </trkpt>
      <trkpt lat="45.70459" lon="4.53811">
        <ele>761</ele>
        <time>2009-07-12T09:48:15Z</time>
      </trkpt>
      <trkpt lat="45.70475" lon="4.5367">
        <ele>747</ele>
        <time>2009-07-12T09:48:29Z</time>
      </trkpt>
      <trkpt lat="45.70481" lon="4.53609">
        <ele>741</ele>
        <time>2009-07-12T09:48:32Z</time>
      </trkpt>
      <trkpt lat="45.70477" lon="4.53529">
        <ele>736</ele>
        <time>2009-07-12T09:48:43Z</time>
      </trkpt>
      <trkpt lat="45.70444" lon="4.5344">
        <ele>726</ele>
        <time>2009-07-12T09:50:17Z</time>
      </trkpt>
      <trkpt lat="45.7039" lon="4.53236">
        <ele>696</ele>
        <time>2009-07-12T09:52:43Z</time>
      </trkpt>
      <trkpt lat="45.70442" lon="4.53049">
        <ele>673</ele>
        <time>2009-07-12T09:54:13Z</time>
      </trkpt>
      <trkpt lat="45.70493" lon="4.5297">
        <ele>669</ele>
        <time>2009-07-12T09:54:34Z</time>
      </trkpt>
      <trkpt lat="45.70637" lon="4.52769">
        <ele>619</ele>
        <time>2009-07-12T09:56:57Z</time>
      </trkpt>
      <trkpt lat="45.70621" lon="4.52635">
        <ele>593</ele>
        <time>2009-07-12T09:57:37Z</time>
      </trkpt>
      <trkpt lat="45.70574" lon="4.52718">
        <ele>603</ele>
        <time>2009-07-12T09:59:37Z</time>
      </trkpt>
      <trkpt lat="45.70457" lon="4.5279">
        <ele>605</ele>
        <time>2009-07-12T10:00:47Z</time>
      </trkpt>
      <trkpt lat="45.70384" lon="4.52865">
        <ele>608</ele>
        <time>2009-07-12T10:01:26Z</time>
      </trkpt>
      <trkpt lat="45.70335" lon="4.52982">
        <ele>615</ele>
        <time>2009-07-12T10:02:05Z</time>
      </trkpt>
      <trkpt lat="45.70312" lon="4.52996">
        <ele>614</ele>
        <time>2009-07-12T10:03:59Z</time>
      </trkpt>
      <trkpt lat="45.70298" lon="4.52884">
        <ele>590</ele>
        <time>2009-07-12T10:04:16Z</time>
      </trkpt>
      <trkpt lat="45.70297" lon="4.52754">
        <ele>571</ele>
        <time>2009-07-12T10:04:42Z</time>
      </trkpt>
      <trkpt lat="45.70291" lon="4.52726">
        <ele>567</ele>
        <time>2009-07-12T10:04:48Z</time>
      </trkpt>
      <trkpt lat="45.70262" lon="4.52712">
        <ele>570</ele>
        <time>2009-07-12T10:04:57Z</time>
      </trkpt>
      <trkpt lat="45.70163" lon="4.52729">
        <ele>572</ele>
        <time>2009-07-12T10:06:00Z</time>
      </trkpt>
      <trkpt lat="45.70123" lon="4.52751">
        <ele>578</ele>
        <time>2009-07-12T10:06:30Z</time>
      </trkpt>
      <trkpt lat="45.70121" lon="4.52753">
        <ele>578</ele>
        <time>2009-07-12T10:06:58Z</time>
      </trkpt>
      <trkpt lat="45.70122" lon="4.52715">
        <ele>580</ele>
        <time>2009-07-12T10:07:52Z</time>
      </trkpt>
      <trkpt lat="45.70134" lon="4.52658">
        <ele>588</ele>
        <time>2009-07-12T10:09:06Z</time>
      </trkpt>
      <trkpt lat="45.70151" lon="4.52609">
        <ele>596</ele>
        <time>2009-07-12T10:10:02Z</time>
      </trkpt>
      <trkpt lat="45.7024" lon="4.525">
        <ele>612</ele>
        <time>2009-07-12T10:13:27Z</time>
      </trkpt>
      <trkpt lat="45.70244" lon="4.52492">
        <ele>614</ele>
        <time>2009-07-12T10:13:47Z</time>
      </trkpt>
      <trkpt lat="45.70256" lon="4.5244">
        <ele>624</ele>
        <time>2009-07-12T10:14:52Z</time>
      </trkpt>
      <trkpt lat="45.70251" lon="4.5242">
        <ele>630</ele>
        <time>2009-07-12T10:15:16Z</time>
      </trkpt>
      <trkpt lat="45.70193" lon="4.52298">
        <ele>635</ele>
        <time>2009-07-12T10:16:23Z</time>
      </trkpt>
      <trkpt lat="45.70148" lon="4.52238">
        <ele>641</ele>
        <time>2009-07-12T10:17:03Z</time>
      </trkpt>
      <trkpt lat="45.70074" lon="4.52187">
        <ele>662</ele>
        <time>2009-07-12T10:19:01Z</time>
      </trkpt>
      <trkpt lat="45.70057" lon="4.52157">
        <ele>665</ele>
        <time>2009-07-12T10:19:36Z</time>
      </trkpt>
      <trkpt lat="45.70053" lon="4.52099">
        <ele>664</ele>
        <time>2009-07-12T10:20:07Z</time>
      </trkpt>
      <trkpt lat="45.70086" lon="4.52089">
        <ele>646</ele>
        <time>2009-07-12T10:20:44Z</time>
      </trkpt>
      <trkpt lat="45.701" lon="4.51843">
        <ele>668</ele>
        <time>2009-07-12T10:23:00Z</time>
      </trkpt>
      <trkpt lat="45.70084" lon="4.51779">
        <ele>677</ele>
        <time>2009-07-12T10:23:14Z</time>
      </trkpt>
      <trkpt lat="45.70164" lon="4.51752">
        <ele>677</ele>
        <time>2009-07-12T10:25:06Z</time>
      </trkpt>
      <trkpt lat="45.70153" lon="4.51701">
        <ele>685</ele>
        <time>2009-07-12T10:26:08Z</time>
      </trkpt>
      <trkpt lat="45.70149" lon="4.5167">
        <ele>689</ele>
        <time>2009-07-12T10:26:25Z</time>
      </trkpt>
      <trkpt lat="45.70151" lon="4.5159">
        <ele>692</ele>
        <time>2009-07-12T10:26:57Z</time>
      </trkpt>
      <trkpt lat="45.70123" lon="4.51471">
        <ele>698</ele>
        <time>2009-07-12T10:27:37Z</time>
      </trkpt>
      <trkpt lat="45.70135" lon="4.51377">
        <ele>680</ele>
        <time>2009-07-12T10:28:33Z</time>
      </trkpt>
      <trkpt lat="45.70124" lon="4.51325">
        <ele>674</ele>
        <time>2009-07-12T10:28:47Z</time>
      </trkpt>
      <trkpt lat="45.70077" lon="4.51244">
        <ele>677</ele>
        <time>2009-07-12T10:29:17Z</time>
      </trkpt>
      <trkpt lat="45.70011" lon="4.51133">
        <ele>691</ele>
        <time>2009-07-12T10:30:24Z</time>
      </trkpt>
      <trkpt lat="45.69969" lon="4.51048">
        <ele>698</ele>
        <time>2009-07-12T10:31:18Z</time>
      </trkpt>
      <trkpt lat="45.7001" lon="4.51005">
        <ele>703</ele>
        <time>2009-07-12T10:31:55Z</time>
      </trkpt>
      <trkpt lat="45.70101" lon="4.51037">
        <ele>707</ele>
        <time>2009-07-12T10:32:56Z</time>
      </trkpt>
      <trkpt lat="45.70142" lon="4.51007">
        <ele>713</ele>
        <time>2009-07-12T10:33:31Z</time>
      </trkpt>
      <trkpt lat="45.70099" lon="4.50952">
        <ele>719</ele>
        <time>2009-07-12T10:34:37Z</time>
      </trkpt>
      <trkpt lat="45.70079" lon="4.50873">
        <ele>724</ele>
        <time>2009-07-12T10:35:13Z</time>
      </trkpt>
      <trkpt lat="45.70049" lon="4.50849">
        <ele>725</ele>
        <time>2009-07-12T10:35:33Z</time>
      </trkpt>
      <trkpt lat="45.69882" lon="4.50796">
        <ele>737</ele>
        <time>2009-07-12T10:38:26Z</time>
      </trkpt>
      <trkpt lat="45.69675" lon="4.50702">
        <ele>758</ele>
        <time>2009-07-12T10:55:16Z</time>
      </trkpt>
      <trkpt lat="45.6962" lon="4.50649">
        <ele>769</ele>
        <time>2009-07-12T10:55:30Z</time>
      </trkpt>
      <trkpt lat="45.69549" lon="4.50613">
        <ele>779</ele>
        <time>2009-07-12T10:58:03Z</time>
      </trkpt>
      <trkpt lat="45.69507" lon="4.50607">
        <ele>780</ele>
        <time>2009-07-12T10:59:53Z</time>
      </trkpt>
      <trkpt lat="45.69529" lon="4.50458">
        <ele>770</ele>
        <time>2009-07-12T11:00:24Z</time>
      </trkpt>
      <trkpt lat="45.69593" lon="4.50306">
        <ele>766</ele>
        <time>2009-07-12T11:00:56Z</time>
      </trkpt>
      <trkpt lat="45.6966" lon="4.50127">
        <ele>758</ele>
        <time>2009-07-12T11:01:26Z</time>
      </trkpt>
      <trkpt lat="45.69698" lon="4.49995">
        <ele>756</ele>
        <time>2009-07-12T11:01:55Z</time>
      </trkpt>
      <trkpt lat="45.69664" lon="4.49937">
        <ele>753</ele>
        <time>2009-07-12T11:02:11Z</time>
      </trkpt>
      <trkpt lat="45.69649" lon="4.49891">
        <ele>746</ele>
        <time>2009-07-12T11:02:24Z</time>
      </trkpt>
      <trkpt lat="45.69636" lon="4.49873">
        <ele>742</ele>
        <time>2009-07-12T11:02:31Z</time>
      </trkpt>
      <trkpt lat="45.69607" lon="4.49873">
        <ele>738</ele>
        <time>2009-07-12T11:02:38Z</time>
      </trkpt>
      <trkpt lat="45.6952" lon="4.49909">
        <ele>733</ele>
        <time>2009-07-12T11:02:52Z</time>
      </trkpt>
      <trkpt lat="45.6943" lon="4.49992">
        <ele>718</ele>
        <time>2009-07-12T11:03:09Z</time>
      </trkpt>
      <trkpt lat="45.69409" lon="4.50025">
        <ele>713</ele>
        <time>2009-07-12T11:03:14Z</time>
      </trkpt>
      <trkpt lat="45.69351" lon="4.50099">
        <ele>700</ele>
        <time>2009-07-12T11:03:28Z</time>
      </trkpt>
      <trkpt lat="45.69278" lon="4.50149">
        <ele>682</ele>
        <time>2009-07-12T11:03:42Z</time>
      </trkpt>
      <trkpt lat="45.69272" lon="4.50155">
        <ele>680</ele>
        <time>2009-07-12T11:03:44Z</time>
      </trkpt>
      <trkpt lat="45.69234" lon="4.50252">
        <ele>663</ele>
        <time>2009-07-12T11:04:01Z</time>
      </trkpt>
      <trkpt lat="45.69213" lon="4.50287">
        <ele>661</ele>
        <time>2009-07-12T11:04:07Z</time>
      </trkpt>
      <trkpt lat="45.69157" lon="4.50289">
        <ele>661</ele>
        <time>2009-07-12T11:04:30Z</time>
      </trkpt>
      <trkpt lat="45.69115" lon="4.50294">
        <ele>665</ele>
        <time>2009-07-12T11:05:52Z</time>
      </trkpt>
      <trkpt lat="45.69115" lon="4.50294">
        <ele>665</ele>
        <time>2009-07-12T11:05:53Z</time>
      </trkpt>
      <trkpt lat="45.69086" lon="4.50286">
        <ele>662</ele>
        <time>2009-07-12T11:06:04Z</time>
      </trkpt>
      <trkpt lat="45.69072" lon="4.50272">
        <ele>658</ele>
        <time>2009-07-12T11:06:09Z</time>
      </trkpt>
      <trkpt lat="45.69048" lon="4.50236">
        <ele>648</ele>
        <time>2009-07-12T11:06:20Z</time>
      </trkpt>
      <trkpt lat="45.69021" lon="4.50239">
        <ele>645</ele>
        <time>2009-07-12T11:06:28Z</time>
      </trkpt>
      <trkpt lat="45.68965" lon="4.50317">
        <ele>632</ele>
        <time>2009-07-12T11:06:47Z</time>
      </trkpt>
      <trkpt lat="45.6895" lon="4.50371">
        <ele>628</ele>
        <time>2009-07-12T11:07:00Z</time>
      </trkpt>
      <trkpt lat="45.68934" lon="4.50366">
        <ele>628</ele>
        <time>2009-07-12T11:07:08Z</time>
      </trkpt>
      <trkpt lat="45.68932" lon="4.50353">
        <ele>627</ele>
        <time>2009-07-12T11:07:23Z</time>
      </trkpt>
      <trkpt lat="45.68918" lon="4.50313">
        <ele>624</ele>
        <time>2009-07-12T11:07:38Z</time>
      </trkpt>
      <trkpt lat="45.68894" lon="4.50159">
        <ele>625</ele>
        <time>2009-07-12T11:08:28Z</time>
      </trkpt>
      <trkpt lat="45.68921" lon="4.49987">
        <ele>612</ele>
        <time>2009-07-12T11:08:57Z</time>
      </trkpt>
      <trkpt lat="45.68855" lon="4.49921">
        <ele>629</ele>
        <time>2009-07-12T11:10:07Z</time>
      </trkpt>
      <trkpt lat="45.68821" lon="4.49986">
        <ele>633</ele>
        <time>2009-07-12T11:11:29Z</time>
      </trkpt>
      <trkpt lat="45.6878" lon="4.50083">
        <ele>651</ele>
        <time>2009-07-12T11:12:53Z</time>
      </trkpt>
      <trkpt lat="45.68767" lon="4.50105">
        <ele>656</ele>
        <time>2009-07-12T11:13:14Z</time>
      </trkpt>
      <trkpt lat="45.68739" lon="4.50156">
        <ele>666</ele>
        <time>2009-07-12T11:14:32Z</time>
      </trkpt>
      <trkpt lat="45.68714" lon="4.50228">
        <ele>675</ele>
        <time>2009-07-12T11:15:36Z</time>
      </trkpt>
      <trkpt lat="45.68707" lon="4.50295">
        <ele>677</ele>
        <time>2009-07-12T11:16:38Z</time>
      </trkpt>
      <trkpt lat="45.6869" lon="4.50356">
        <ele>684</ele>
        <time>2009-07-12T11:17:07Z</time>
      </trkpt>
      <trkpt lat="45.68686" lon="4.50441">
        <ele>686</ele>
        <time>2009-07-12T11:18:06Z</time>
      </trkpt>
      <trkpt lat="45.6867" lon="4.50473">
        <ele>690</ele>
        <time>2009-07-12T11:18:21Z</time>
      </trkpt>
      <trkpt lat="45.68658" lon="4.50462">
        <ele>694</ele>
        <time>2009-07-12T11:18:35Z</time>
      </trkpt>
      <trkpt lat="45.68661" lon="4.50345">
        <ele>694</ele>
        <time>2009-07-12T11:19:41Z</time>
      </trkpt>
      <trkpt lat="45.68655" lon="4.50334">
        <ele>696</ele>
        <time>2009-07-12T11:19:50Z</time>
      </trkpt>
      <trkpt lat="45.68646" lon="4.50259">
        <ele>698</ele>
        <time>2009-07-12T11:20:51Z</time>
      </trkpt>
      <trkpt lat="45.68608" lon="4.50255">
        <ele>712</ele>
        <time>2009-07-12T11:21:44Z</time>
      </trkpt>
      <trkpt lat="45.68601" lon="4.50221">
        <ele>714</ele>
        <time>2009-07-12T11:22:22Z</time>
      </trkpt>
      <trkpt lat="45.68581" lon="4.50119">
        <ele>722.2</ele>
        <time>2009-07-12T11:23:11Z</time>
      </trkpt>
      <trkpt lat="45.68568" lon="4.50061">
        <ele>723</ele>
      </trkpt>
      <trkpt lat="45.68566" lon="4.50046">
        <ele>722.7</ele>
      </trkpt>
      <trkpt lat="45.68559" lon="4.50027">
        <ele>723.8</ele>
      </trkpt>
      <trkpt lat="45.68495" lon="4.4996">
        <ele>739</ele>
        <time>2009-07-12T11:25:25Z</time>
      </trkpt>
      <trkpt lat="45.68486" lon="4.49919">
        <ele>737</ele>
        <time>2009-07-12T11:26:05Z</time>
      </trkpt>
      <trkpt lat="45.68354" lon="4.49779">
        <ele>768</ele>
        <time>2009-07-12T11:28:54Z</time>
      </trkpt>
      <trkpt lat="45.68321" lon="4.49716">
        <ele>771</ele>
        <time>2009-07-12T11:30:18Z</time>
      </trkpt>
      <trkpt lat="45.68304" lon="4.49687">
        <ele>774</ele>
        <time>2009-07-12T11:31:01Z</time>
      </trkpt>
      <trkpt lat="45.6829" lon="4.49672">
        <ele>778</ele>
        <time>2009-07-12T11:31:32Z</time>
      </trkpt>
      <trkpt lat="45.68249" lon="4.49566">
        <ele>789</ele>
        <time>2009-07-12T11:34:14Z</time>
      </trkpt>
      <trkpt lat="45.68226" lon="4.49429">
        <ele>796</ele>
        <time>2009-07-12T11:35:25Z</time>
      </trkpt>
      <trkpt lat="45.68211" lon="4.49367">
        <ele>800</ele>
        <time>2009-07-12T11:35:48Z</time>
      </trkpt>
      <trkpt lat="45.68183" lon="4.49354">
        <ele>803</ele>
        <time>2009-07-12T11:36:05Z</time>
      </trkpt>
      <trkpt lat="45.6818" lon="4.49399">
        <ele>803</ele>
        <time>2009-07-12T11:36:25Z</time>
      </trkpt>
      <trkpt lat="45.68205" lon="4.49585">
        <ele>805</ele>
        <time>2009-07-12T11:37:07Z</time>
      </trkpt>
      <trkpt lat="45.68224" lon="4.49712">
        <ele>808</ele>
        <time>2009-07-12T11:37:32Z</time>
      </trkpt>
      <trkpt lat="45.68218" lon="4.4975">
        <ele>816</ele>
        <time>2009-07-12T11:41:01Z</time>
      </trkpt>
      <trkpt lat="45.68252" lon="4.49828">
        <ele>814</ele>
        <time>2009-07-12T11:42:15Z</time>
      </trkpt>
      <trkpt lat="45.68316" lon="4.49976">
        <ele>816</ele>
        <time>2009-07-12T11:44:10Z</time>
      </trkpt>
      <trkpt lat="45.68345" lon="4.5015">
        <ele>825</ele>
        <time>2009-07-12T11:45:06Z</time>
      </trkpt>
      <trkpt lat="45.68334" lon="4.50371">
        <ele>835</ele>
        <time>2009-07-12T11:46:39Z</time>
      </trkpt>
      <trkpt lat="45.68281" lon="4.50473">
        <ele>856</ele>
        <time>2009-07-12T11:47:47Z</time>
      </trkpt>
      <trkpt lat="45.68253" lon="4.50592">
        <ele>859</ele>
        <time>2009-07-12T11:49:33Z</time>
      </trkpt>
      <trkpt lat="45.68235" lon="4.5066">
        <ele>863</ele>
        <time>2009-07-12T11:51:48Z</time>
      </trkpt>
      <trkpt lat="45.68243" lon="4.50724">
        <ele>864</ele>
        <time>2009-07-12T11:58:48Z</time>
      </trkpt>
      <trkpt lat="45.68255" lon="4.50885">
        <ele>870</ele>
        <time>2009-07-12T11:59:50Z</time>
      </trkpt>
      <trkpt lat="45.68247" lon="4.51222">
        <ele>868</ele>
        <time>2009-07-12T12:00:41Z</time>
      </trkpt>
      <trkpt lat="45.68227" lon="4.51264">
        <ele>867</ele>
        <time>2009-07-12T12:00:51Z</time>
      </trkpt>
      <trkpt lat="45.68206" lon="4.51233">
        <ele>869</ele>
        <time>2009-07-12T12:01:03Z</time>
      </trkpt>
      <trkpt lat="45.68144" lon="4.51146">
        <ele>873</ele>
        <time>2009-07-12T12:01:39Z</time>
      </trkpt>
      <trkpt lat="45.68053" lon="4.51059">
        <ele>877</ele>
        <time>2009-07-12T12:02:47Z</time>
      </trkpt>
      <trkpt lat="45.68032" lon="4.51036">
        <ele>880</ele>
        <time>2009-07-12T12:03:01Z</time>
      </trkpt>
      <trkpt lat="45.68015" lon="4.51001">
        <ele>883</ele>
        <time>2009-07-12T12:03:32Z</time>
      </trkpt>
      <trkpt lat="45.67985" lon="4.50899">
        <ele>888</ele>
        <time>2009-07-12T12:05:45Z</time>
      </trkpt>
      <trkpt lat="45.67961" lon="4.50785">
        <ele>892</ele>
        <time>2009-07-12T12:06:46Z</time>
      </trkpt>
      <trkpt lat="45.67921" lon="4.5065">
        <ele>900</ele>
        <time>2009-07-12T12:07:40Z</time>
      </trkpt>
      <trkpt lat="45.6781" lon="4.50585">
        <ele>903</ele>
        <time>2009-07-12T12:08:38Z</time>
      </trkpt>
      <trkpt lat="45.67746" lon="4.50549">
        <ele>900</ele>
        <time>2009-07-12T12:08:59Z</time>
      </trkpt>
      <trkpt lat="45.67744" lon="4.50515">
        <ele>902</ele>
        <time>2009-07-12T12:09:06Z</time>
      </trkpt>
      <trkpt lat="45.67753" lon="4.50489">
        <ele>904</ele>
        <time>2009-07-12T12:09:14Z</time>
      </trkpt>
      <trkpt lat="45.678" lon="4.50442">
        <ele>909</ele>
        <time>2009-07-12T12:09:52Z</time>
      </trkpt>
      <trkpt lat="45.67857" lon="4.50408">
        <ele>913</ele>
        <time>2009-07-12T12:10:48Z</time>
      </trkpt>
      <trkpt lat="45.67875" lon="4.50363">
        <ele>915</ele>
        <time>2009-07-12T12:11:06Z</time>
      </trkpt>
      <trkpt lat="45.6792" lon="4.50318">
        <ele>918</ele>
        <time>2009-07-12T12:11:29Z</time>
      </trkpt>
      <trkpt lat="45.67953" lon="4.50282">
        <ele>921</ele>
        <time>2009-07-12T12:11:50Z</time>
      </trkpt>
      <trkpt lat="45.67992" lon="4.5017">
        <ele>921</ele>
        <time>2009-07-12T12:21:08Z</time>
      </trkpt>
      <trkpt lat="45.68028" lon="4.50055">
        <ele>914</ele>
        <time>2009-07-12T12:21:32Z</time>
      </trkpt>
      <trkpt lat="45.68084" lon="4.49933">
        <ele>890</ele>
        <time>2009-07-12T12:22:14Z</time>
      </trkpt>
      <trkpt lat="45.68134" lon="4.49948">
        <ele>880</ele>
        <time>2009-07-12T12:22:24Z</time>
      </trkpt>
      <trkpt lat="45.68137" lon="4.49954">
        <ele>880</ele>
        <time>2009-07-12T12:22:28Z</time>
      </trkpt>
      <trkpt lat="45.6809" lon="4.49877">
        <ele>880</ele>
        <time>2009-07-12T12:22:57Z</time>
      </trkpt>
      <trkpt lat="45.6801" lon="4.49757">
        <ele>882</ele>
        <time>2009-07-12T12:24:19Z</time>
      </trkpt>
      <trkpt lat="45.67942" lon="4.4969">
        <ele>864</ele>
        <time>2009-07-12T12:24:58Z</time>
      </trkpt>
      <trkpt lat="45.67914" lon="4.49656">
        <ele>856</ele>
        <time>2009-07-12T12:25:20Z</time>
      </trkpt>
      <trkpt lat="45.67885" lon="4.49643">
        <ele>850</ele>
        <time>2009-07-12T12:25:49Z</time>
      </trkpt>
      <trkpt lat="45.67866" lon="4.49687">
        <ele>854</ele>
        <time>2009-07-12T12:26:13Z</time>
      </trkpt>
      <trkpt lat="45.67822" lon="4.49776">
        <ele>861</ele>
        <time>2009-07-12T12:27:09Z</time>
      </trkpt>
      <trkpt lat="45.67754" lon="4.49865">
        <ele>866</ele>
        <time>2009-07-12T12:28:13Z</time>
      </trkpt>
      <trkpt lat="45.67697" lon="4.49938">
        <ele>864</ele>
        <time>2009-07-12T12:28:42Z</time>
      </trkpt>
      <trkpt lat="45.67683" lon="4.5003">
        <ele>866</ele>
        <time>2009-07-12T12:29:02Z</time>
      </trkpt>
      <trkpt lat="45.67669" lon="4.50078">
        <ele>867</ele>
        <time>2009-07-12T12:29:18Z</time>
      </trkpt>
      <trkpt lat="45.67625" lon="4.5011">
        <ele>866</ele>
        <time>2009-07-12T12:29:35Z</time>
      </trkpt>
      <trkpt lat="45.67554" lon="4.50113">
        <ele>871</ele>
        <time>2009-07-12T12:30:37Z</time>
      </trkpt>
      <trkpt lat="45.67553" lon="4.5014">
        <ele>874</ele>
        <time>2009-07-12T12:30:48Z</time>
      </trkpt>
      <trkpt lat="45.67574" lon="4.50231">
        <ele>879</ele>
        <time>2009-07-12T12:31:30Z</time>
      </trkpt>
      <trkpt lat="45.67645" lon="4.50408">
        <ele>893</ele>
        <time>2009-07-12T12:34:18Z</time>
      </trkpt>
      <trkpt lat="45.67711" lon="4.50516">
        <ele>899</ele>
        <time>2009-07-12T12:35:22Z</time>
      </trkpt>
      <trkpt lat="45.67712" lon="4.50518">
        <ele>899</ele>
        <time>2009-07-12T12:35:23Z</time>
      </trkpt>
      <trkpt lat="45.67709" lon="4.50522">
        <ele>898</ele>
        <time>2009-07-12T12:35:28Z</time>
      </trkpt>
      <trkpt lat="45.67676" lon="4.50567">
        <ele>891</ele>
        <time>2009-07-12T12:35:43Z</time>
      </trkpt>
      <trkpt lat="45.6772" lon="4.50681">
        <ele>880</ele>
        <time>2009-07-12T12:36:00Z</time>
      </trkpt>
      <trkpt lat="45.67759" lon="4.50766">
        <ele>868</ele>
        <time>2009-07-12T12:36:18Z</time>
      </trkpt>
      <trkpt lat="45.6775" lon="4.50768">
        <ele>866</ele>
        <time>2009-07-12T12:36:22Z</time>
      </trkpt>
      <trkpt lat="45.67746" lon="4.50765">
        <ele>866</ele>
        <time>2009-07-12T12:36:23Z</time>
      </trkpt>
      <trkpt lat="45.6771" lon="4.50745">
        <ele>864</ele>
        <time>2009-07-12T12:36:30Z</time>
      </trkpt>
      <trkpt lat="45.67602" lon="4.50705">
        <ele>863</ele>
        <time>2009-07-12T12:36:48Z</time>
      </trkpt>
      <trkpt lat="45.6754" lon="4.5079">
        <ele>857</ele>
        <time>2009-07-12T12:37:11Z</time>
      </trkpt>
      <trkpt lat="45.675" lon="4.5089">
        <ele>855</ele>
        <time>2009-07-12T12:37:24Z</time>
      </trkpt>
      <trkpt lat="45.67439" lon="4.50988">
        <ele>852</ele>
        <time>2009-07-12T12:37:43Z</time>
      </trkpt>
      <trkpt lat="45.67365" lon="4.50961">
        <ele>851</ele>
        <time>2009-07-12T12:37:58Z</time>
      </trkpt>
      <trkpt lat="45.67329" lon="4.50956">
        <ele>853</ele>
        <time>2009-07-12T12:38:12Z</time>
      </trkpt>
      <trkpt lat="45.67262" lon="4.5095">
        <ele>858</ele>
        <time>2009-07-12T12:39:06Z</time>
      </trkpt>
      <trkpt lat="45.67234" lon="4.50933">
        <ele>859</ele>
        <time>2009-07-12T12:39:23Z</time>
      </trkpt>
      <trkpt lat="45.6717" lon="4.50858">
        <ele>857</ele>
        <time>2009-07-12T12:39:49Z</time>
      </trkpt>
      <trkpt lat="45.67139" lon="4.50821">
        <ele>853</ele>
        <time>2009-07-12T12:39:56Z</time>
      </trkpt>
      <trkpt lat="45.67001" lon="4.50808">
        <ele>843</ele>
        <time>2009-07-12T12:40:13Z</time>
      </trkpt>
      <trkpt lat="45.6697" lon="4.50789">
        <ele>845</ele>
        <time>2009-07-12T12:40:19Z</time>
      </trkpt>
      <trkpt lat="45.66921" lon="4.50721">
        <ele>847</ele>
        <time>2009-07-12T12:40:32Z</time>
      </trkpt>
      <trkpt lat="45.6691" lon="4.50707">
        <ele>846</ele>
        <time>2009-07-12T12:41:37Z</time>
      </trkpt>
      <trkpt lat="45.66903" lon="4.50814">
        <ele>845</ele>
        <time>2009-07-12T12:42:32Z</time>
      </trkpt>
      <trkpt lat="45.66853" lon="4.5091">
        <ele>849</ele>
        <time>2009-07-12T12:43:03Z</time>
      </trkpt>
      <trkpt lat="45.66751" lon="4.51109">
        <ele>841</ele>
        <time>2009-07-12T12:43:43Z</time>
      </trkpt>
      <trkpt lat="45.66747" lon="4.51156">
        <ele>839</ele>
        <time>2009-07-12T12:43:49Z</time>
      </trkpt>
      <trkpt lat="45.66674" lon="4.51252">
        <ele>822</ele>
        <time>2009-07-12T12:44:13Z</time>
      </trkpt>
      <trkpt lat="45.66649" lon="4.51257">
        <ele>817</ele>
        <time>2009-07-12T12:44:27Z</time>
      </trkpt>
      <trkpt lat="45.66645" lon="4.51315">
        <ele>811</ele>
        <time>2009-07-12T12:44:39Z</time>
      </trkpt>
      <trkpt lat="45.66686" lon="4.51449">
        <ele>797</ele>
        <time>2009-07-12T12:44:55Z</time>
      </trkpt>
      <trkpt lat="45.66725" lon="4.51494">
        <ele>792</ele>
        <time>2009-07-12T12:45:04Z</time>
      </trkpt>
      <trkpt lat="45.6673" lon="4.51519">
        <ele>788</ele>
        <time>2009-07-12T12:45:17Z</time>
      </trkpt>
      <trkpt lat="45.6669" lon="4.51535">
        <ele>785</ele>
        <time>2009-07-12T12:45:26Z</time>
      </trkpt>
      <trkpt lat="45.66608" lon="4.51587">
        <ele>782</ele>
        <time>2009-07-12T12:45:40Z</time>
      </trkpt>
      <trkpt lat="45.66552" lon="4.51624">
        <ele>780</ele>
        <time>2009-07-12T12:45:49Z</time>
      </trkpt>
      <trkpt lat="45.6655" lon="4.51653">
        <ele>779</ele>
        <time>2009-07-12T12:45:56Z</time>
      </trkpt>
      <trkpt lat="45.66661" lon="4.51711">
        <ele>768</ele>
        <time>2009-07-12T12:46:19Z</time>
      </trkpt>
      <trkpt lat="45.66717" lon="4.51793">
        <ele>759</ele>
        <time>2009-07-12T12:46:37Z</time>
      </trkpt>
      <trkpt lat="45.66767" lon="4.51936">
        <ele>748</ele>
        <time>2009-07-12T12:47:00Z</time>
      </trkpt>
      <trkpt lat="45.66796" lon="4.52088">
        <ele>740</ele>
        <time>2009-07-12T12:47:32Z</time>
      </trkpt>
      <trkpt lat="45.66814" lon="4.5215">
        <ele>738</ele>
        <time>2009-07-12T12:47:47Z</time>
      </trkpt>
      <trkpt lat="45.66866" lon="4.52262">
        <ele>734</ele>
        <time>2009-07-12T12:48:13Z</time>
      </trkpt>
      <trkpt lat="45.6695" lon="4.52323">
        <ele>730</ele>
        <time>2009-07-12T12:48:37Z</time>
      </trkpt>
      <trkpt lat="45.67071" lon="4.52353">
        <ele>725</ele>
        <time>2009-07-12T12:49:04Z</time>
      </trkpt>
      <trkpt lat="45.67139" lon="4.52428">
        <ele>725</ele>
        <time>2009-07-12T12:49:31Z</time>
      </trkpt>
      <trkpt lat="45.67216" lon="4.52436">
        <ele>725</ele>
        <time>2009-07-12T12:49:49Z</time>
      </trkpt>
      <trkpt lat="45.67227" lon="4.52465">
        <ele>725</ele>
        <time>2009-07-12T12:49:55Z</time>
      </trkpt>
      <trkpt lat="45.67238" lon="4.52511">
        <ele>725</ele>
        <time>2009-07-12T12:50:04Z</time>
      </trkpt>
      <trkpt lat="45.67253" lon="4.52523">
        <ele>726</ele>
        <time>2009-07-12T12:50:16Z</time>
      </trkpt>
      <trkpt lat="45.67253" lon="4.52526">
        <ele>726</ele>
        <time>2009-07-12T12:50:29Z</time>
      </trkpt>
      <trkpt lat="45.67201" lon="4.52578">
        <ele>722</ele>
        <time>2009-07-12T12:50:52Z</time>
      </trkpt>
      <trkpt lat="45.6714" lon="4.52548">
        <ele>717</ele>
        <time>2009-07-12T12:51:08Z</time>
      </trkpt>
      <trkpt lat="45.67064" lon="4.52513">
        <ele>721</ele>
        <time>2009-07-12T12:51:55Z</time>
      </trkpt>
      <trkpt lat="45.66991" lon="4.52548">
        <ele>735</ele>
        <time>2009-07-12T12:53:20Z</time>
      </trkpt>
      <trkpt lat="45.66884" lon="4.52559">
        <ele>747</ele>
        <time>2009-07-12T12:54:38Z</time>
      </trkpt>
      <trkpt lat="45.66793" lon="4.52575">
        <ele>752</ele>
        <time>2009-07-12T12:55:18Z</time>
      </trkpt>
      <trkpt lat="45.66634" lon="4.52633">
        <ele>758</ele>
        <time>2009-07-12T12:56:23Z</time>
      </trkpt>
      <trkpt lat="45.66481" lon="4.52767">
        <ele>767</ele>
        <time>2009-07-12T12:57:36Z</time>
      </trkpt>
      <trkpt lat="45.66446" lon="4.5282">
        <ele>768</ele>
        <time>2009-07-12T12:58:44Z</time>
      </trkpt>
      <trkpt lat="45.66441" lon="4.52942">
        <ele>764</ele>
        <time>2009-07-12T12:59:04Z</time>
      </trkpt>
      <trkpt lat="45.66435" lon="4.53052">
        <ele>759</ele>
        <time>2009-07-12T12:59:21Z</time>
      </trkpt>
      <trkpt lat="45.66453" lon="4.53105">
        <ele>753</ele>
        <time>2009-07-12T12:59:33Z</time>
      </trkpt>
      <trkpt lat="45.66415" lon="4.53178">
        <ele>745</ele>
        <time>2009-07-12T12:59:51Z</time>
      </trkpt>
      <trkpt lat="45.66425" lon="4.53245">
        <ele>738</ele>
        <time>2009-07-12T13:00:04Z</time>
      </trkpt>
      <trkpt lat="45.66441" lon="4.53278">
        <ele>734</ele>
        <time>2009-07-12T13:00:09Z</time>
      </trkpt>
      <trkpt lat="45.66379" lon="4.53309">
        <ele>731</ele>
        <time>2009-07-12T13:02:02Z</time>
      </trkpt>
      <trkpt lat="45.66337" lon="4.53293">
        <ele>729</ele>
        <time>2009-07-12T13:02:14Z</time>
      </trkpt>
      <trkpt lat="45.6633" lon="4.53316">
        <ele>726</ele>
        <time>2009-07-12T13:02:19Z</time>
      </trkpt>
      <trkpt lat="45.66328" lon="4.53359">
        <ele>722</ele>
        <time>2009-07-12T13:02:24Z</time>
      </trkpt>
      <trkpt lat="45.66347" lon="4.53635">
        <ele>719</ele>
        <time>2009-07-12T13:03:08Z</time>
      </trkpt>
      <trkpt lat="45.66352" lon="4.53683">
        <ele>724</ele>
        <time>2009-07-12T13:03:22Z</time>
      </trkpt>
      <trkpt lat="45.66379" lon="4.53805">
        <ele>728</ele>
        <time>2009-07-12T13:04:25Z</time>
      </trkpt>
      <trkpt lat="45.66443" lon="4.53997">
        <ele>718</ele>
        <time>2009-07-12T13:04:58Z</time>
      </trkpt>
      <trkpt lat="45.66469" lon="4.5424">
        <ele>695</ele>
        <time>2009-07-12T13:06:10Z</time>
      </trkpt>
      <trkpt lat="45.66484" lon="4.54398">
        <ele>678</ele>
        <time>2009-07-12T13:06:30Z</time>
      </trkpt>
      <trkpt lat="45.66476" lon="4.54473">
        <ele>671</ele>
        <time>2009-07-12T13:06:40Z</time>
      </trkpt>
      <trkpt lat="45.66469" lon="4.54504">
        <ele>669</ele>
        <time>2009-07-12T13:06:45Z</time>
      </trkpt>
      <trkpt lat="45.66429" lon="4.54686">
        <ele>652</ele>
        <time>2009-07-12T13:07:12Z</time>
      </trkpt>
      <trkpt lat="45.66377" lon="4.54925">
        <ele>630</ele>
        <time>2009-07-12T13:07:49Z</time>
      </trkpt>
      <trkpt lat="45.66368" lon="4.54981">
        <ele>631</ele>
        <time>2009-07-12T13:07:57Z</time>
      </trkpt>
      <trkpt lat="45.66374" lon="4.5502">
        <ele>635</ele>
        <time>2009-07-12T13:08:06Z</time>
      </trkpt>
      <trkpt lat="45.66384" lon="4.55023">
        <ele>636</ele>
        <time>2009-07-12T13:08:12Z</time>
      </trkpt>
      <trkpt lat="45.66498" lon="4.55001">
        <ele>637</ele>
        <time>2009-07-12T13:09:06Z</time>
      </trkpt>
      <trkpt lat="45.66525" lon="4.55072">
        <ele>641</ele>
        <time>2009-07-12T13:09:34Z</time>
      </trkpt>
      <trkpt lat="45.66578" lon="4.55109">
        <ele>640</ele>
        <time>2009-07-12T13:09:47Z</time>
      </trkpt>
      <trkpt lat="45.66578" lon="4.55112">
        <ele>640</ele>
        <time>2009-07-12T13:09:48Z</time>
      </trkpt>
      <trkpt lat="45.6653" lon="4.55185">
        <ele>656</ele>
        <time>2009-07-12T13:11:07Z</time>
      </trkpt>
      <trkpt lat="45.66515" lon="4.55215">
        <ele>660</ele>
        <time>2009-07-12T13:11:42Z</time>
      </trkpt>
      <trkpt lat="45.66453" lon="4.5527">
        <ele>671</ele>
        <time>2009-07-12T13:12:39Z</time>
      </trkpt>
      <trkpt lat="45.66439" lon="4.5533">
        <ele>678</ele>
        <time>2009-07-12T13:13:36Z</time>
      </trkpt>
      <trkpt lat="45.66426" lon="4.55411">
        <ele>684</ele>
        <time>2009-07-12T13:16:10Z</time>
      </trkpt>
      <trkpt lat="45.66383" lon="4.55521">
        <ele>694</ele>
        <time>2009-07-12T13:17:51Z</time>
      </trkpt>
      <trkpt lat="45.6638" lon="4.55544">
        <ele>696</ele>
        <time>2009-07-12T13:18:03Z</time>
      </trkpt>
      <trkpt lat="45.66384" lon="4.55601">
        <ele>700</ele>
        <time>2009-07-12T13:18:48Z</time>
      </trkpt>
      <trkpt lat="45.66383" lon="4.55653">
        <ele>704</ele>
        <time>2009-07-12T13:19:11Z</time>
      </trkpt>
      <trkpt lat="45.6638" lon="4.55697">
        <ele>705</ele>
        <time>2009-07-12T13:19:30Z</time>
      </trkpt>
      <trkpt lat="45.66365" lon="4.55743">
        <ele>706</ele>
        <time>2009-07-12T13:19:50Z</time>
      </trkpt>
      <trkpt lat="45.66297" lon="4.55947">
        <ele>713</ele>
        <time>2009-07-12T13:21:01Z</time>
      </trkpt>
      <trkpt lat="45.66269" lon="4.56003">
        <ele>716</ele>
        <time>2009-07-12T13:21:22Z</time>
      </trkpt>
      <trkpt lat="45.66242" lon="4.56033">
        <ele>718</ele>
        <time>2009-07-12T13:21:38Z</time>
      </trkpt>
      <trkpt lat="45.662" lon="4.56048">
        <ele>721</ele>
        <time>2009-07-12T13:21:59Z</time>
      </trkpt>
      <trkpt lat="45.66184" lon="4.56046">
        <ele>722</ele>
        <time>2009-07-12T13:22:08Z</time>
        <extensions>
          <visugpx:TrkExtension xmlns:visugpx="https://www.visugpx.com/editgpx/">
            <visugpx:node>3</visugpx:node>
            </visugpx:TrkExtension>
        </extensions>
      </trkpt>
    </trkseg>
  </trk>
</gpx>